Buoy 31735

sailwx.info

Track history (hours):
 
Tides and Currents Weather Stations Pressure Air Temp Water Temp Dewpoint Dewpoint Depression Visibility Wind Speed Wind Dir Waves Ship Positions

Drifting buoy 31735

Last reported at 2018-Aug-15 00:00 UTC. Time now 2018-Aug-15 03:01 UTC.
Position N 34°37' W 071°23'.

Barometer 1017.2 mb
Water temperature 27.6 ° C

Date/timePositionNaut miles runAvg speedWind from/ knotsBaromVisibWave heightAir tempDewpointWater temp
2018-Aug-15 00:00N 34°37' W 071°23'4 1.8 1017.2 27.6
2018-Aug-14 22:00N 34°38' W 071°27'1 1.5 1017.6 27.8
2018-Aug-14 21:00N 34°38' W 071°29'2 2.0 1017.1 27.8
2018-Aug-14 20:00N 34°38' W 071°31'3 1.3 1017.1 27.8
2018-Aug-14 18:00N 34°39' W 071°34'3 1.5 1018.6 27.9
2018-Aug-14 16:00N 34°40' W 071°38'1 1.0 1018.9 27.9
2018-Aug-14 15:00N 34°40' W 071°39'1 1.5 1019.5 27.9
2018-Aug-14 14:00N 34°40' W 071°41'2 1.2 1019.2 27.8
2018-Aug-14 12:00N 34°40' W 071°44'1 1.5 1018.6 27.8
2018-Aug-14 11:00N 34°40' W 071°46'2 1.0 1019.3 27.8
2018-Aug-14 09:00N 34°40' W 071°48'1 1.5 1017.8 27.8
2018-Aug-14 08:00N 34°40' W 071°50'1 1.2 1017.3 27.8
2018-Aug-14 07:00N 34°39' W 071°51'1 1.5 1017.5 27.8
2018-Aug-14 06:00N 34°39' W 071°53'1 1.2 1017.7 27.8
2018-Aug-14 05:00N 34°38' W 071°54'1 1.5 1018.1 27.8
2018-Aug-14 04:00N 34°38' W 071°56'1 1.2 1018.3 27.8
2018-Aug-14 03:00N 34°38' W 071°57'1 1.2 1018.0 27.8
2018-Aug-14 02:00N 34°37' W 071°58'1 1.2 1018.1 27.8
2018-Aug-14 01:00N 34°37' W 071°59'1 1.2 1018.3 27.9
2018-Aug-14 00:00N 34°36' W 072°01'1 1.2 1018.2 27.9
2018-Aug-13 23:00N 34°35' W 072°02'1 1.2 1018.0 27.9
2018-Aug-13 22:00N 34°35' W 072°03'1 1.2 1017.9 27.9
2018-Aug-13 21:00N 34°34' W 072°04'1 1.2 1018.0 27.9
2018-Aug-13 20:00N 34°34' W 072°05'1 0.8 1018.8 27.9
2018-Aug-13 19:00N 34°33' W 072°06'1 1.2 1019.0 27.9
2018-Aug-13 18:00N 34°32' W 072°07'1 1.2 1019.9 27.9
2018-Aug-13 17:00N 34°32' W 072°08'1 1.2 1019.4 27.8
2018-Aug-13 16:00N 34°31' W 072°10'1 1.2 1020.1 27.8
2018-Aug-13 15:00N 34°31' W 072°11'1 1.2 1021.0 27.9
2018-Aug-13 14:00N 34°30' W 072°12'2 1.6 1020.5 27.9
2018-Aug-13 13:00N 34°29' W 072°13'1 1.3 1019.6 27.9
2018-Aug-13 12:00N 34°28' W 072°14'1 0.8 1021.3 27.8
2018-Aug-13 11:00N 34°27' W 072°14'1 1.2 1019.3 27.9
2018-Aug-13 10:00N 34°26' W 072°14'1 1.3 1019.1 27.9
2018-Aug-13 09:00N 34°25' W 072°15'1 1.2 1019.0 27.9
2018-Aug-13 08:00N 34°23' W 072°15'1 0.6 1018.8 27.9
2018-Aug-13 07:00N 34°23' W 072°15'1 1.2 1018.9 27.9
2018-Aug-13 06:00N 34°22' W 072°15'1 1.2 1019.1 27.9
2018-Aug-13 05:00N 34°20' W 072°15'1 1.3 1019.8 28.0
2018-Aug-13 04:00N 34°19' W 072°14'1 0.6 1020.1 28.0
2018-Aug-13 02:00N 34°18' W 072°14'1 1.2 1019.6 28.0
2018-Aug-13 01:00N 34°17' W 072°14'1 0.8 1019.3 28.0
2018-Aug-13 00:00N 34°16' W 072°13'1 1.3 1018.9 28.0
2018-Aug-12 23:00N 34°15' W 072°13'1 0.8 1019.2 28.0
2018-Aug-12 22:00N 34°14' W 072°12'1 0.6 1019.8 28.1
2018-Aug-12 21:00N 34°14' W 072°12'1 1.3 1019.6 28.1
2018-Aug-12 20:00N 34°13' W 072°11'1 0.8 1019.4 28.1
2018-Aug-12 19:00N 34°12' W 072°11'1 0.6 1019.7 28.1
2018-Aug-12 18:00N 34°11' W 072°11'1 1.3 1020.4 28.0
2018-Aug-12 17:00N 34°10' W 072°10'1 0.8 1020.3 27.9
2018-Aug-12 16:00N 34°10' W 072°10'2 1.6 1020.4 27.9
2018-Aug-12 15:00N 34°08' W 072°08'1 1.3 1020.2 27.9
2018-Aug-12 14:00N 34°07' W 072°08'1 1.2 1019.8 27.9
2018-Aug-12 13:00N 34°07' W 072°07'1 1.3 1019.3 28.0
2018-Aug-12 12:00N 34°05' W 072°06'1 1.2 1018.9 28.0
2018-Aug-12 11:00N 34°05' W 072°05'2 1.6 1018.7 28.0
2018-Aug-12 10:00N 34°04' W 072°04'1 1.2 1018.4 28.0
2018-Aug-12 09:00N 34°03' W 072°02'2 1.9 1017.7 28.1
2018-Aug-12 08:00N 34°02' W 072°01'1 1.2 1017.9 28.1
2018-Aug-12 07:00N 34°01' W 071°59'1 1.2 1018.2 28.1
2018-Aug-12 06:00N 34°01' W 071°58'2 1.6 1018.2 28.1
2018-Aug-12 05:00N 34°00' W 071°56'2 1.6 1018.4 28.1
2018-Aug-12 04:00N 33°59' W 071°55'1 1.2 1018.5 28.1
2018-Aug-12 03:00N 33°58' W 071°54'2 1.6 1018.1 28.1
2018-Aug-12 02:00N 33°57' W 071°53'1 1.2 1018.3 28.2
2018-Aug-12 01:00N 33°56' W 071°52'2 1.6 1017.8 28.2
2018-Aug-12 00:00N 33°55' W 071°50'1 1.2 1017.0 28.3
2018-Aug-11 23:00N 33°55' W 071°49'2 1.9 1016.7 28.3
2018-Aug-11 22:00N 33°53' W 071°47'1 1.2 1016.5 28.2
2018-Aug-11 21:00N 33°53' W 071°46'2 1.6 1016.4 28.1
2018-Aug-11 20:00N 33°52' W 071°45'1 1.2 1016.6 28.0
2018-Aug-11 19:00N 33°51' W 071°44'2 1.6 1017.2 28.1
2018-Aug-11 18:00N 33°50' W 071°43'2 1.6 1017.6 28.1
2018-Aug-11 17:00N 33°49' W 071°41'1 1.2 1017.5 27.9
2018-Aug-11 16:00N 33°49' W 071°40'1 1.2 1017.4 27.9
2018-Aug-11 15:00N 33°48' W 071°38'1 1.2 1017.6 27.8
2018-Aug-11 14:00N 33°47' W 071°37'1 1.2 1016.9 27.7
2018-Aug-11 13:00N 33°47' W 071°36'1 1.0 1016.5 27.7
2018-Aug-11 12:00N 33°47' W 071°35'1 1.2 1016.2 27.7
2018-Aug-11 11:00N 33°46' W 071°34'1 1.0 1015.6 27.6
2018-Aug-11 10:00N 33°46' W 071°32'1 1.0 1015.2 27.7
2018-Aug-11 09:00N 33°46' W 071°31'1 1.2 1015.0 27.7
2018-Aug-11 08:00N 33°46' W 071°30'1 1.0 1015.3 27.8
2018-Aug-11 07:00N 33°46' W 071°29'1 1.0 1015.3 27.8
2018-Aug-11 06:00N 33°46' W 071°28'1 1.0 1015.1 27.8
2018-Aug-11 05:00N 33°46' W 071°26'1 1.2 1015.4 27.8
2018-Aug-11 04:00N 33°46' W 071°25'1 1.0 1015.3 27.9
2018-Aug-11 03:00N 33°46' W 071°24'1 0.8 1014.9 27.9
2018-Aug-11 02:00N 33°46' W 071°23'1 0.8 1014.7 27.7
2018-Aug-11 01:00N 33°45' W 071°23'1 1.2 1014.0 27.6
2018-Aug-11 00:00N 33°44' W 071°22'1 1.2 1013.5 27.6
2018-Aug-10 23:00N 33°44' W 071°20'1 1.2 1013.3 27.8
2018-Aug-10 22:00N 33°43' W 071°19'1 1.2 1013.5 28.1
2018-Aug-10 21:00N 33°43' W 071°18'1 1.5 1013.5 28.2
2018-Aug-10 20:00N 33°43' W 071°16'1 1.2 1013.5 28.2
2018-Aug-10 19:00N 33°42' W 071°15'1 1.5 1013.9 28.2
2018-Aug-10 18:00N 33°42' W 071°13'2 1.2 1014.2 28.0
2018-Aug-10 16:00N 33°42' W 071°10'1 1.5 1014.3 27.8
2018-Aug-10 15:00N 33°42' W 071°08'0 0.5 1014.3 27.6
2018-Aug-10 14:00N 33°42' W 071°08'1 1.0 1014.2 27.4
2018-Aug-10 13:00N 33°42' W 071°07'0 0.5 1013.8 27.4
2018-Aug-10 12:00N 33°42' W 071°06'1 1.2 1013.3 27.4
2018-Aug-10 11:00N 33°43' W 071°05'0 0.5 1012.7 27.4
2018-Aug-10 10:00N 33°43' W 071°04'1 0.8 1012.7 27.4
2018-Aug-10 09:00N 33°42' W 071°04'1 0.8 1013.0 27.5
2018-Aug-10 08:00N 33°43' W 071°03'1 0.6 1013.4 27.5
2018-Aug-10 07:00N 33°42' W 071°03'1 0.6 1013.7 27.5
2018-Aug-10 06:00N 33°41' W 071°03'0 0.5 1014.1 27.6
2018-Aug-10 05:00N 33°41' W 071°02'1 1.2 1014.9 27.6
2018-Aug-10 04:00N 33°40' W 071°02'1 0.8 1014.8 27.6
2018-Aug-10 03:00N 33°40' W 071°02'1 1.3 1015.2 27.6
2018-Aug-10 02:00N 33°38' W 071°01'1 0.8 1014.9 27.7
2018-Aug-10 01:00N 33°38' W 071°01'2 1.6 1014.7 27.7
2018-Aug-10 00:00N 33°37' W 070°59'1 1.3 1014.6 27.6
2018-Aug-09 23:00N 33°35' W 070°59'1 1.2 1014.5 27.6
2018-Aug-09 22:00N 33°35' W 070°58'1 1.2 1014.2 27.6
2018-Aug-09 21:00N 33°34' W 070°56'2 1.6 1014.1 27.6
2018-Aug-09 20:00N 33°34' W 070°55'1 1.0 1013.9 27.6
2018-Aug-09 19:00N 33°34' W 070°53'0 0.5 1014.6 27.5
2018-Aug-09 18:00N 33°34' W 070°53'2 0.8 1015.9 27.6
2018-Aug-09 16:00N 33°35' W 070°52'0 0.5 1017.3 27.7
2018-Aug-09 15:00N 33°35' W 070°51'0 0.5 1015.8 27.7
2018-Aug-09 14:00N 33°35' W 070°50'0 0.5 1015.1 27.6
2018-Aug-09 13:00N 33°35' W 070°50'1 1.0 1016.2 27.6
2018-Aug-09 12:00N 33°35' W 070°49'1 0.8 1017.0 27.7
2018-Aug-09 11:00N 33°34' W 070°48'2 1.0 1015.7 27.9
2018-Aug-09 09:00N 33°32' W 070°47'1 0.8 1015.4 28.0
2018-Aug-09 08:00N 33°32' W 070°46'1 1.0 1015.8 28.0
2018-Aug-09 07:00N 33°32' W 070°45'1 1.2 1016.3 28.1
2018-Aug-09 06:00N 33°31' W 070°44'1 0.5 1016.7 28.1
2018-Aug-09 05:00N 33°31' W 070°43'1 1.2 1016.8 28.1
2018-Aug-09 04:00N 33°31' W 070°42'2 1.0 1017.6 28.2
2018-Aug-09 02:00N 33°31' W 070°40'1 1.0 1017.9 28.2
2018-Aug-09 01:00N 33°31' W 070°38'1 0.5 1017.0 28.3
2018-Aug-09 00:00N 33°31' W 070°38'1 1.0 1017.2 28.3
2018-Aug-08 23:00N 33°31' W 070°37'1 0.5 1017.5 28.3
2018-Aug-08 22:00N 33°31' W 070°36'2 0.8 1017.1 28.3
2018-Aug-08 20:00N 33°30' W 070°34'1 0.5 1017.6 28.5
2018-Aug-08 19:00N 33°30' W 070°34'1 1.0 1018.1 28.5
2018-Aug-08 18:00N 33°30' W 070°32'1 1.0 1018.5 28.5
2018-Aug-08 17:00N 33°30' W 070°31'1 0.5 1018.7 28.5
2018-Aug-08 16:00N 33°30' W 070°31'1 1.0 1019.2 28.4
2018-Aug-08 15:00N 33°30' W 070°29'1 1.0 1019.7 28.4
2018-Aug-08 14:00N 33°30' W 070°28'1 0.5 1019.3 28.4
2018-Aug-08 13:00N 33°30' W 070°28'1 1.0 1019.4 28.3
2018-Aug-08 12:00N 33°30' W 070°26'1 0.5 1019.2 28.4
2018-Aug-08 11:00N 33°30' W 070°26'1 0.5 1018.9 28.4
2018-Aug-08 10:00N 33°30' W 070°25'1 1.0 1018.5 28.4
2018-Aug-08 09:00N 33°30' W 070°24'1 0.5 1018.4 28.4
2018-Aug-08 08:00N 33°30' W 070°23'1 0.5 1018.4 28.4
2018-Aug-08 07:00N 33°30' W 070°23'1 0.5 1018.6 28.4
2018-Aug-08 06:00N 33°30' W 070°22'1 0.5 1019.0 28.4
2018-Aug-08 05:00N 33°30' W 070°22'1 0.8 1019.1 28.4
2018-Aug-08 04:00N 33°29' W 070°21'1 1.0 1019.3 28.4
2018-Aug-08 03:00N 33°29' W 070°20'1 0.5 1019.2 28.5
2018-Aug-08 02:00N 33°29' W 070°19'1 1.0 1019.5 28.6
2018-Aug-08 01:00N 33°29' W 070°18'1 0.5 1019.2 28.6
2018-Aug-08 00:00N 33°29' W 070°17'1 1.0 1019.0 28.7
2018-Aug-07 23:00N 33°29' W 070°16'1 0.5 1018.8 28.8
2018-Aug-07 22:00N 33°29' W 070°16'1 0.8 1018.9 28.8
2018-Aug-07 21:00N 33°30' W 070°15'1 1.0 1019.1 28.9
2018-Aug-07 20:00N 33°30' W 070°14'1 0.5 1019.3 28.9
2018-Aug-07 19:00N 33°30' W 070°13'1 0.8 1019.6 28.8
2018-Aug-07 18:00N 33°31' W 070°13'1 0.5 1020.1 28.7
2018-Aug-07 17:00N 33°31' W 070°12'1 0.5 1020.7 28.6
2018-Aug-07 16:00N 33°31' W 070°11'1 0.5 1020.9 28.5
2018-Aug-07 15:00N 33°31' W 070°11'1 1.0 1021.0 28.4
2018-Aug-07 14:00N 33°31' W 070°10'1 0.8 1020.7 28.3
2018-Aug-07 13:00N 33°31' W 070°09'1 0.5 1020.6 28.2
2018-Aug-07 12:00N 33°31' W 070°08'1 0.5 1020.6 28.1
2018-Aug-07 11:00N 33°31' W 070°08'1 0.5 1020.2 28.1
2018-Aug-07 10:00N 33°31' W 070°07'1 0.5 1019.9 28.2
2018-Aug-07 08:00N 33°31' W 070°06'1 0.5 1019.4 28.3
2018-Aug-07 07:00N 33°31' W 070°05'1 0.8 1019.4 28.4
2018-Aug-07 06:00N 33°31' W 070°05'1 0.5 1019.9 28.4
2018-Aug-07 05:00N 33°31' W 070°04'1 0.8 1020.1 28.6
2018-Aug-07 04:00N 33°30' W 070°04'1 1.0 1020.4 28.6
2018-Aug-07 03:00N 33°30' W 070°02'1 0.8 1020.5 28.6
2018-Aug-07 02:00N 33°29' W 070°02'2 1.5 1020.8 28.6
2018-Aug-07 01:00N 33°29' W 070°00'1 1.0 1020.4 28.7
2018-Aug-07 00:00N 33°29' W 069°59'2 1.0 1019.9 28.8
2018-Aug-06 22:00N 33°30' W 069°56'1 0.8 1019.4 29.0
2018-Aug-06 21:00N 33°31' W 069°56'1 1.2 1019.6 29.1
2018-Aug-06 20:00N 33°31' W 069°55'1 0.8 1019.9 29.2
2018-Aug-06 19:00N 33°32' W 069°54'1 1.3 1020.2 29.1
2018-Aug-06 18:00N 33°33' W 069°53'1 0.8 1020.6 28.9
2018-Aug-06 17:00N 33°34' W 069°53'1 0.6 1021.0 28.7
2018-Aug-06 16:00N 33°34' W 069°53'1 0.8 1021.4 28.6
2018-Aug-06 15:00N 33°35' W 069°52'0 0.0 1021.4 28.6
2018-Aug-06 14:00N 33°35' W 069°52'0 0.5 1021.7 28.5
2018-Aug-06 13:00N 33°35' W 069°52'0 0.5 1021.6 28.4
2018-Aug-06 12:00N 33°35' W 069°51'1 1.0 1021.4 28.4
2018-Aug-06 11:00N 33°35' W 069°50'0 0.5 1021.3 28.4
2018-Aug-06 10:00N 33°35' W 069°49'0 0.5 1021.1 28.5
2018-Aug-06 09:00N 33°35' W 069°49'1 1.2 1020.5 28.5
2018-Aug-06 08:00N 33°34' W 069°47'1 1.0 1020.3 28.6
2018-Aug-06 07:00N 33°34' W 069°46'1 1.0 1020.4 28.6
2018-Aug-06 06:00N 33°34' W 069°45'1 1.0 1020.8 28.7
2018-Aug-06 05:00N 33°34' W 069°44'1 1.2 1021.1 28.8
2018-Aug-06 04:00N 33°35' W 069°43'1 1.0 1021.3 28.9
2018-Aug-06 03:00N 33°35' W 069°41'1 1.2 1021.6 28.9
2018-Aug-06 02:00N 33°35' W 069°40'1 1.2 1021.7 29.0
2018-Aug-06 01:00N 33°36' W 069°39'1 1.2 1021.6 29.1
2018-Aug-06 00:00N 33°37' W 069°38'0 0.5 1021.5 29.2
2018-Aug-05 23:00N 33°37' W 069°37'1 0.8 1021.4 29.3
2018-Aug-05 22:00N 33°37' W 069°37'1 0.8 1021.5 29.3
2018-Aug-05 21:00N 33°38' W 069°36'1 0.8 1021.7 29.6
2018-Aug-05 20:00N 33°38' W 069°35'0 0.5 1021.8 29.6
2018-Aug-05 19:00N 33°38' W 069°35'1 1.0 1022.2 29.4
2018-Aug-05 18:00N 33°38' W 069°34'1 0.8 1022.4 29.3
2018-Aug-05 17:00N 33°39' W 069°33'1 1.0 1022.8 29.1
2018-Aug-05 16:00N 33°39' W 069°32'0 0.5 1023.1 29.0
2018-Aug-05 15:00N 33°39' W 069°31'1 1.2 1023.4 28.5
2018-Aug-05 14:00N 33°40' W 069°30'1 1.0 1023.3 28.1
2018-Aug-05 13:00N 33°40' W 069°29'1 1.0 1023.5 27.8
2018-Aug-05 12:00N 33°40' W 069°28'1 1.0 1023.5 27.8
2018-Aug-05 11:00N 33°40' W 069°26'1 0.8 1023.1 27.8
2018-Aug-05 10:00N 33°40' W 069°26'1 1.0 1022.8 27.7
2018-Aug-05 09:00N 33°40' W 069°25'1 1.0 1022.3 27.8
2018-Aug-05 08:00N 33°40' W 069°23'1 1.2 1022.1 27.8
2018-Aug-05 07:00N 33°41' W 069°22'0 0.5 1022.1 27.9
2018-Aug-05 06:00N 33°41' W 069°22'1 1.0 1022.4 27.9
2018-Aug-05 05:00N 33°41' W 069°20'1 0.8 1022.7 27.9
2018-Aug-05 04:00N 33°41' W 069°20'0 0.5 1023.2 27.9
2018-Aug-05 03:00N 33°41' W 069°19'1 0.8 1023.4 27.9
2018-Aug-05 02:00N 33°42' W 069°19'0 0.5 1023.4 28.0
2018-Aug-05 01:00N 33°42' W 069°18'1 1.0 1023.3 28.0
2018-Aug-05 00:00N 33°42' W 069°17'   1022.9 28.1
Track history (hours):
 
Tides and Currents Weather Stations Pressure Air Temp Water Temp Dewpoint Dewpoint Depression Visibility Wind Speed Wind Dir Waves Ship Positions

Drifting buoy 31735

Last reported at 2018-Aug-15 00:00 UTC. Time now 2018-Aug-15 03:01 UTC.
Position N 34°37' W 071°23'.

Barometer 1017.2 mb
Water temperature 27.6 ° C

Date/timePositionNaut miles runAvg speedWind from/ knotsBaromVisibWave heightAir tempDewpointWater temp
2018-Aug-15 00:00N 34°37' W 071°23'4 1.8 1017.2 27.6
2018-Aug-14 22:00N 34°38' W 071°27'1 1.5 1017.6 27.8
2018-Aug-14 21:00N 34°38' W 071°29'2 2.0 1017.1 27.8
2018-Aug-14 20:00N 34°38' W 071°31'3 1.3 1017.1 27.8
2018-Aug-14 18:00N 34°39' W 071°34'3 1.5 1018.6 27.9
2018-Aug-14 16:00N 34°40' W 071°38'1 1.0 1018.9 27.9
2018-Aug-14 15:00N 34°40' W 071°39'1 1.5 1019.5 27.9
2018-Aug-14 14:00N 34°40' W 071°41'2 1.2 1019.2 27.8
2018-Aug-14 12:00N 34°40' W 071°44'1 1.5 1018.6 27.8
2018-Aug-14 11:00N 34°40' W 071°46'2 1.0 1019.3 27.8
2018-Aug-14 09:00N 34°40' W 071°48'1 1.5 1017.8 27.8
2018-Aug-14 08:00N 34°40' W 071°50'1 1.2 1017.3 27.8
2018-Aug-14 07:00N 34°39' W 071°51'1 1.5 1017.5 27.8
2018-Aug-14 06:00N 34°39' W 071°53'1 1.2 1017.7 27.8
2018-Aug-14 05:00N 34°38' W 071°54'1 1.5 1018.1 27.8
2018-Aug-14 04:00N 34°38' W 071°56'1 1.2 1018.3 27.8
2018-Aug-14 03:00N 34°38' W 071°57'1 1.2 1018.0 27.8
2018-Aug-14 02:00N 34°37' W 071°58'1 1.2 1018.1 27.8
2018-Aug-14 01:00N 34°37' W 071°59'1 1.2 1018.3 27.9
2018-Aug-14 00:00N 34°36' W 072°01'1 1.2 1018.2 27.9
2018-Aug-13 23:00N 34°35' W 072°02'1 1.2 1018.0 27.9
2018-Aug-13 22:00N 34°35' W 072°03'1 1.2 1017.9 27.9
2018-Aug-13 21:00N 34°34' W 072°04'1 1.2 1018.0 27.9
2018-Aug-13 20:00N 34°34' W 072°05'1 0.8 1018.8 27.9
2018-Aug-13 19:00N 34°33' W 072°06'1 1.2 1019.0 27.9
2018-Aug-13 18:00N 34°32' W 072°07'1 1.2 1019.9 27.9
2018-Aug-13 17:00N 34°32' W 072°08'1 1.2 1019.4 27.8
2018-Aug-13 16:00N 34°31' W 072°10'1 1.2 1020.1 27.8
2018-Aug-13 15:00N 34°31' W 072°11'1 1.2 1021.0 27.9
2018-Aug-13 14:00N 34°30' W 072°12'2 1.6 1020.5 27.9
2018-Aug-13 13:00N 34°29' W 072°13'1 1.3 1019.6 27.9
2018-Aug-13 12:00N 34°28' W 072°14'1 0.8 1021.3 27.8
2018-Aug-13 11:00N 34°27' W 072°14'1 1.2 1019.3 27.9
2018-Aug-13 10:00N 34°26' W 072°14'1 1.3 1019.1 27.9
2018-Aug-13 09:00N 34°25' W 072°15'1 1.2 1019.0 27.9
2018-Aug-13 08:00N 34°23' W 072°15'1 0.6 1018.8 27.9
2018-Aug-13 07:00N 34°23' W 072°15'1 1.2 1018.9 27.9
2018-Aug-13 06:00N 34°22' W 072°15'1 1.2 1019.1 27.9
2018-Aug-13 05:00N 34°20' W 072°15'1 1.3 1019.8 28.0
2018-Aug-13 04:00N 34°19' W 072°14'1 0.6 1020.1 28.0
2018-Aug-13 02:00N 34°18' W 072°14'1 1.2 1019.6 28.0
2018-Aug-13 01:00N 34°17' W 072°14'1 0.8 1019.3 28.0
2018-Aug-13 00:00N 34°16' W 072°13'1 1.3 1018.9 28.0
2018-Aug-12 23:00N 34°15' W 072°13'1 0.8 1019.2 28.0
2018-Aug-12 22:00N 34°14' W 072°12'1 0.6 1019.8 28.1
2018-Aug-12 21:00N 34°14' W 072°12'1 1.3 1019.6 28.1
2018-Aug-12 20:00N 34°13' W 072°11'1 0.8 1019.4 28.1
2018-Aug-12 19:00N 34°12' W 072°11'1 0.6 1019.7 28.1
2018-Aug-12 18:00N 34°11' W 072°11'1 1.3 1020.4 28.0
2018-Aug-12 17:00N 34°10' W 072°10'1 0.8 1020.3 27.9
2018-Aug-12 16:00N 34°10' W 072°10'2 1.6 1020.4 27.9
2018-Aug-12 15:00N 34°08' W 072°08'1 1.3 1020.2 27.9
2018-Aug-12 14:00N 34°07' W 072°08'1 1.2 1019.8 27.9
2018-Aug-12 13:00N 34°07' W 072°07'1 1.3 1019.3 28.0
2018-Aug-12 12:00N 34°05' W 072°06'1 1.2 1018.9 28.0
2018-Aug-12 11:00N 34°05' W 072°05'2 1.6 1018.7 28.0
2018-Aug-12 10:00N 34°04' W 072°04'1 1.2 1018.4 28.0
2018-Aug-12 09:00N 34°03' W 072°02'2 1.9 1017.7 28.1
2018-Aug-12 08:00N 34°02' W 072°01'1 1.2 1017.9 28.1
2018-Aug-12 07:00N 34°01' W 071°59'1 1.2 1018.2 28.1
2018-Aug-12 06:00N 34°01' W 071°58'2 1.6 1018.2 28.1
2018-Aug-12 05:00N 34°00' W 071°56'2 1.6 1018.4 28.1
2018-Aug-12 04:00N 33°59' W 071°55'1 1.2 1018.5 28.1
2018-Aug-12 03:00N 33°58' W 071°54'2 1.6 1018.1 28.1
2018-Aug-12 02:00N 33°57' W 071°53'1 1.2 1018.3 28.2
2018-Aug-12 01:00N 33°56' W 071°52'2 1.6 1017.8 28.2
2018-Aug-12 00:00N 33°55' W 071°50'1 1.2 1017.0 28.3
2018-Aug-11 23:00N 33°55' W 071°49'2 1.9 1016.7 28.3
2018-Aug-11 22:00N 33°53' W 071°47'1 1.2 1016.5 28.2
2018-Aug-11 21:00N 33°53' W 071°46'2 1.6 1016.4 28.1
2018-Aug-11 20:00N 33°52' W 071°45'1 1.2 1016.6 28.0
2018-Aug-11 19:00N 33°51' W 071°44'2 1.6 1017.2 28.1
2018-Aug-11 18:00N 33°50' W 071°43'2 1.6 1017.6 28.1
2018-Aug-11 17:00N 33°49' W 071°41'1 1.2 1017.5 27.9
2018-Aug-11 16:00N 33°49' W 071°40'1 1.2 1017.4 27.9
2018-Aug-11 15:00N 33°48' W 071°38'1 1.2 1017.6 27.8
2018-Aug-11 14:00N 33°47' W 071°37'1 1.2 1016.9 27.7
2018-Aug-11 13:00N 33°47' W 071°36'1 1.0 1016.5 27.7
2018-Aug-11 12:00N 33°47' W 071°35'1 1.2 1016.2 27.7
2018-Aug-11 11:00N 33°46' W 071°34'1 1.0 1015.6 27.6
2018-Aug-11 10:00N 33°46' W 071°32'1 1.0 1015.2 27.7
2018-Aug-11 09:00N 33°46' W 071°31'1 1.2 1015.0 27.7
2018-Aug-11 08:00N 33°46' W 071°30'1 1.0 1015.3 27.8
2018-Aug-11 07:00N 33°46' W 071°29'1 1.0 1015.3 27.8
2018-Aug-11 06:00N 33°46' W 071°28'1 1.0 1015.1 27.8
2018-Aug-11 05:00N 33°46' W 071°26'1 1.2 1015.4 27.8
2018-Aug-11 04:00N 33°46' W 071°25'1 1.0 1015.3 27.9
2018-Aug-11 03:00N 33°46' W 071°24'1 0.8 1014.9 27.9
2018-Aug-11 02:00N 33°46' W 071°23'1 0.8 1014.7 27.7
2018-Aug-11 01:00N 33°45' W 071°23'1 1.2 1014.0 27.6
2018-Aug-11 00:00N 33°44' W 071°22'1 1.2 1013.5 27.6
2018-Aug-10 23:00N 33°44' W 071°20'1 1.2 1013.3 27.8
2018-Aug-10 22:00N 33°43' W 071°19'1 1.2 1013.5 28.1
2018-Aug-10 21:00N 33°43' W 071°18'1 1.5 1013.5 28.2
2018-Aug-10 20:00N 33°43' W 071°16'1 1.2 1013.5 28.2
2018-Aug-10 19:00N 33°42' W 071°15'1 1.5 1013.9 28.2
2018-Aug-10 18:00N 33°42' W 071°13'2 1.2 1014.2 28.0
2018-Aug-10 16:00N 33°42' W 071°10'1 1.5 1014.3 27.8
2018-Aug-10 15:00N 33°42' W 071°08'0 0.5 1014.3 27.6
2018-Aug-10 14:00N 33°42' W 071°08'1 1.0 1014.2 27.4
2018-Aug-10 13:00N 33°42' W 071°07'0 0.5 1013.8 27.4
2018-Aug-10 12:00N 33°42' W 071°06'1 1.2 1013.3 27.4
2018-Aug-10 11:00N 33°43' W 071°05'0 0.5 1012.7 27.4
2018-Aug-10 10:00N 33°43' W 071°04'1 0.8 1012.7 27.4
2018-Aug-10 09:00N 33°42' W 071°04'1 0.8 1013.0 27.5
2018-Aug-10 08:00N 33°43' W 071°03'1 0.6 1013.4 27.5
2018-Aug-10 07:00N 33°42' W 071°03'1 0.6 1013.7 27.5
2018-Aug-10 06:00N 33°41' W 071°03'0 0.5 1014.1 27.6
2018-Aug-10 05:00N 33°41' W 071°02'1 1.2 1014.9 27.6
2018-Aug-10 04:00N 33°40' W 071°02'1 0.8 1014.8 27.6
2018-Aug-10 03:00N 33°40' W 071°02'1 1.3 1015.2 27.6
2018-Aug-10 02:00N 33°38' W 071°01'1 0.8 1014.9 27.7
2018-Aug-10 01:00N 33°38' W 071°01'2 1.6 1014.7 27.7
2018-Aug-10 00:00N 33°37' W 070°59'1 1.3 1014.6 27.6
2018-Aug-09 23:00N 33°35' W 070°59'1 1.2 1014.5 27.6
2018-Aug-09 22:00N 33°35' W 070°58'1 1.2 1014.2 27.6
2018-Aug-09 21:00N 33°34' W 070°56'2 1.6 1014.1 27.6
2018-Aug-09 20:00N 33°34' W 070°55'1 1.0 1013.9 27.6
2018-Aug-09 19:00N 33°34' W 070°53'0 0.5 1014.6 27.5
2018-Aug-09 18:00N 33°34' W 070°53'2 0.8 1015.9 27.6
2018-Aug-09 16:00N 33°35' W 070°52'0 0.5 1017.3 27.7
2018-Aug-09 15:00N 33°35' W 070°51'0 0.5 1015.8 27.7
2018-Aug-09 14:00N 33°35' W 070°50'0 0.5 1015.1 27.6
2018-Aug-09 13:00N 33°35' W 070°50'1 1.0 1016.2 27.6
2018-Aug-09 12:00N 33°35' W 070°49'1 0.8 1017.0 27.7
2018-Aug-09 11:00N 33°34' W 070°48'2 1.0 1015.7 27.9
2018-Aug-09 09:00N 33°32' W 070°47'1 0.8 1015.4 28.0
2018-Aug-09 08:00N 33°32' W 070°46'1 1.0 1015.8 28.0
2018-Aug-09 07:00N 33°32' W 070°45'1 1.2 1016.3 28.1
2018-Aug-09 06:00N 33°31' W 070°44'1 0.5 1016.7 28.1
2018-Aug-09 05:00N 33°31' W 070°43'1 1.2 1016.8 28.1
2018-Aug-09 04:00N 33°31' W 070°42'2 1.0 1017.6 28.2
2018-Aug-09 02:00N 33°31' W 070°40'1 1.0 1017.9 28.2
2018-Aug-09 01:00N 33°31' W 070°38'1 0.5 1017.0 28.3
2018-Aug-09 00:00N 33°31' W 070°38'1 1.0 1017.2 28.3
2018-Aug-08 23:00N 33°31' W 070°37'1 0.5 1017.5 28.3
2018-Aug-08 22:00N 33°31' W 070°36'2 0.8 1017.1 28.3
2018-Aug-08 20:00N 33°30' W 070°34'1 0.5 1017.6 28.5
2018-Aug-08 19:00N 33°30' W 070°34'1 1.0 1018.1 28.5
2018-Aug-08 18:00N 33°30' W 070°32'1 1.0 1018.5 28.5
2018-Aug-08 17:00N 33°30' W 070°31'1 0.5 1018.7 28.5
2018-Aug-08 16:00N 33°30' W 070°31'1 1.0 1019.2 28.4
2018-Aug-08 15:00N 33°30' W 070°29'1 1.0 1019.7 28.4
2018-Aug-08 14:00N 33°30' W 070°28'1 0.5 1019.3 28.4
2018-Aug-08 13:00N 33°30' W 070°28'1 1.0 1019.4 28.3
2018-Aug-08 12:00N 33°30' W 070°26'1 0.5 1019.2 28.4
2018-Aug-08 11:00N 33°30' W 070°26'1 0.5 1018.9 28.4
2018-Aug-08 10:00N 33°30' W 070°25'1 1.0 1018.5 28.4
2018-Aug-08 09:00N 33°30' W 070°24'1 0.5 1018.4 28.4
2018-Aug-08 08:00N 33°30' W 070°23'1 0.5 1018.4 28.4
2018-Aug-08 07:00N 33°30' W 070°23'1 0.5 1018.6 28.4
2018-Aug-08 06:00N 33°30' W 070°22'1 0.5 1019.0 28.4
2018-Aug-08 05:00N 33°30' W 070°22'1 0.8 1019.1 28.4
2018-Aug-08 04:00N 33°29' W 070°21'1 1.0 1019.3 28.4
2018-Aug-08 03:00N 33°29' W 070°20'1 0.5 1019.2 28.5
2018-Aug-08 02:00N 33°29' W 070°19'1 1.0 1019.5 28.6
2018-Aug-08 01:00N 33°29' W 070°18'1 0.5 1019.2 28.6
2018-Aug-08 00:00N 33°29' W 070°17'1 1.0 1019.0 28.7
2018-Aug-07 23:00N 33°29' W 070°16'1 0.5 1018.8 28.8
2018-Aug-07 22:00N 33°29' W 070°16'1 0.8 1018.9 28.8
2018-Aug-07 21:00N 33°30' W 070°15'1 1.0 1019.1 28.9
2018-Aug-07 20:00N 33°30' W 070°14'1 0.5 1019.3 28.9
2018-Aug-07 19:00N 33°30' W 070°13'1 0.8 1019.6 28.8
2018-Aug-07 18:00N 33°31' W 070°13'1 0.5 1020.1 28.7
2018-Aug-07 17:00N 33°31' W 070°12'1 0.5 1020.7 28.6
2018-Aug-07 16:00N 33°31' W 070°11'1 0.5 1020.9 28.5
2018-Aug-07 15:00N 33°31' W 070°11'1 1.0 1021.0 28.4
2018-Aug-07 14:00N 33°31' W 070°10'1 0.8 1020.7 28.3
2018-Aug-07 13:00N 33°31' W 070°09'1 0.5 1020.6 28.2
2018-Aug-07 12:00N 33°31' W 070°08'1 0.5 1020.6 28.1
2018-Aug-07 11:00N 33°31' W 070°08'1 0.5 1020.2 28.1
2018-Aug-07 10:00N 33°31' W 070°07'1 0.5 1019.9 28.2
2018-Aug-07 08:00N 33°31' W 070°06'1 0.5 1019.4 28.3
2018-Aug-07 07:00N 33°31' W 070°05'1 0.8 1019.4 28.4
2018-Aug-07 06:00N 33°31' W 070°05'1 0.5 1019.9 28.4
2018-Aug-07 05:00N 33°31' W 070°04'1 0.8 1020.1 28.6
2018-Aug-07 04:00N 33°30' W 070°04'1 1.0 1020.4 28.6
2018-Aug-07 03:00N 33°30' W 070°02'1 0.8 1020.5 28.6
2018-Aug-07 02:00N 33°29' W 070°02'2 1.5 1020.8 28.6
2018-Aug-07 01:00N 33°29' W 070°00'1 1.0 1020.4 28.7
2018-Aug-07 00:00N 33°29' W 069°59'2 1.0 1019.9 28.8
2018-Aug-06 22:00N 33°30' W 069°56'1 0.8 1019.4 29.0
2018-Aug-06 21:00N 33°31' W 069°56'1 1.2 1019.6 29.1
2018-Aug-06 20:00N 33°31' W 069°55'1 0.8 1019.9 29.2
2018-Aug-06 19:00N 33°32' W 069°54'1 1.3 1020.2 29.1
2018-Aug-06 18:00N 33°33' W 069°53'1 0.8 1020.6 28.9
2018-Aug-06 17:00N 33°34' W 069°53'1 0.6 1021.0 28.7
2018-Aug-06 16:00N 33°34' W 069°53'1 0.8 1021.4 28.6
2018-Aug-06 15:00N 33°35' W 069°52'0 0.0 1021.4 28.6
2018-Aug-06 14:00N 33°35' W 069°52'0 0.5 1021.7 28.5
2018-Aug-06 13:00N 33°35' W 069°52'0 0.5 1021.6 28.4
2018-Aug-06 12:00N 33°35' W 069°51'1 1.0 1021.4 28.4
2018-Aug-06 11:00N 33°35' W 069°50'0 0.5 1021.3 28.4
2018-Aug-06 10:00N 33°35' W 069°49'0 0.5 1021.1 28.5
2018-Aug-06 09:00N 33°35' W 069°49'1 1.2 1020.5 28.5
2018-Aug-06 08:00N 33°34' W 069°47'1 1.0 1020.3 28.6
2018-Aug-06 07:00N 33°34' W 069°46'1 1.0 1020.4 28.6
2018-Aug-06 06:00N 33°34' W 069°45'1 1.0 1020.8 28.7
2018-Aug-06 05:00N 33°34' W 069°44'1 1.2 1021.1 28.8
2018-Aug-06 04:00N 33°35' W 069°43'1 1.0 1021.3 28.9
2018-Aug-06 03:00N 33°35' W 069°41'1 1.2 1021.6 28.9
2018-Aug-06 02:00N 33°35' W 069°40'1 1.2 1021.7 29.0
2018-Aug-06 01:00N 33°36' W 069°39'1 1.2 1021.6 29.1
2018-Aug-06 00:00N 33°37' W 069°38'0 0.5 1021.5 29.2
2018-Aug-05 23:00N 33°37' W 069°37'1 0.8 1021.4 29.3
2018-Aug-05 22:00N 33°37' W 069°37'1 0.8 1021.5 29.3
2018-Aug-05 21:00N 33°38' W 069°36'1 0.8 1021.7 29.6
2018-Aug-05 20:00N 33°38' W 069°35'0 0.5 1021.8 29.6
2018-Aug-05 19:00N 33°38' W 069°35'1 1.0 1022.2 29.4
2018-Aug-05 18:00N 33°38' W 069°34'1 0.8 1022.4 29.3
2018-Aug-05 17:00N 33°39' W 069°33'1 1.0 1022.8 29.1
2018-Aug-05 16:00N 33°39' W 069°32'0 0.5 1023.1 29.0
2018-Aug-05 15:00N 33°39' W 069°31'1 1.2 1023.4 28.5
2018-Aug-05 14:00N 33°40' W 069°30'1 1.0 1023.3 28.1
2018-Aug-05 13:00N 33°40' W 069°29'1 1.0 1023.5 27.8
2018-Aug-05 12:00N 33°40' W 069°28'1 1.0 1023.5 27.8
2018-Aug-05 11:00N 33°40' W 069°26'1 0.8 1023.1 27.8
2018-Aug-05 10:00N 33°40' W 069°26'1 1.0 1022.8 27.7
2018-Aug-05 09:00N 33°40' W 069°25'1 1.0 1022.3 27.8
2018-Aug-05 08:00N 33°40' W 069°23'1 1.2 1022.1 27.8
2018-Aug-05 07:00N 33°41' W 069°22'0 0.5 1022.1 27.9
2018-Aug-05 06:00N 33°41' W 069°22'1 1.0 1022.4 27.9
2018-Aug-05 05:00N 33°41' W 069°20'1 0.8 1022.7 27.9
2018-Aug-05 04:00N 33°41' W 069°20'0 0.5 1023.2 27.9
2018-Aug-05 03:00N 33°41' W 069°19'1 0.8 1023.4 27.9
2018-Aug-05 02:00N 33°42' W 069°19'0 0.5 1023.4 28.0
2018-Aug-05 01:00N 33°42' W 069°18'1 1.0 1023.3 28.0
2018-Aug-05 00:00N 33°42' W 069°17'   1022.9 28.1

Dump ship's entire track history